Hornepayne, Canada
Current Conditions -  °F | °C
As of 3:00 PM on Thursday 23 Oct 2014 (Local Time) from CYXZ Reporting Station
Broken Clouds Broken Clouds  
Wind Chill: 52°   Ceiling: 33000
Heat Index: 52°   Visibility: 15mi
Dew Point: 41°   Wind: 10mph
Humidity: 67%   Direction: 210°SSW
Pressure: 30.07"   Gusts: NA
Location:  49.22°N, 84.78°W
Report Text: CYXZ 231900Z 21009KT 15SM BKN330 11/05 A3007 RMK CI5 SLP195
Loading
Personal Weather Stations






























Interactive Weather Map New forecast layout! Learn more

10-Day Weather Forecast

Advertisements
Track Severe Weather on mobile